sensor_id;sensor_type;location;lat;lon;timestamp;temperature;humidity
21891;DHT22;11110;52.386;16.940;2022-08-21T00:00:42;32.00;54.30
21891;DHT22;11110;52.386;16.940;2022-08-21T00:03:11;32.00;54.10
21891;DHT22;11110;52.386;16.940;2022-08-21T00:05:43;31.90;54.00
21891;DHT22;11110;52.386;16.940;2022-08-21T00:08:12;31.90;53.90
21891;DHT22;11110;52.386;16.940;2022-08-21T00:10:41;31.90;54.00
21891;DHT22;11110;52.386;16.940;2022-08-21T00:13:10;31.90;53.90
21891;DHT22;11110;52.386;16.940;2022-08-21T00:15:47;31.90;54.00
21891;DHT22;11110;52.386;16.940;2022-08-21T00:18:16;31.80;54.70
21891;DHT22;11110;52.386;16.940;2022-08-21T00:20:46;31.80;54.20
21891;DHT22;11110;52.386;16.940;2022-08-21T00:23:15;31.90;54.30
21891;DHT22;11110;52.386;16.940;2022-08-21T00:25:45;31.90;54.00
21891;DHT22;11110;52.386;16.940;2022-08-21T00:28:14;31.80;54.00
21891;DHT22;11110;52.386;16.940;2022-08-21T00:30:43;31.80;53.90
21891;DHT22;11110;52.386;16.940;2022-08-21T00:33:13;31.80;53.80
21891;DHT22;11110;52.386;16.940;2022-08-21T00:35:42;31.80;53.90
21891;DHT22;11110;52.386;16.940;2022-08-21T00:38:11;31.80;53.60
21891;DHT22;11110;52.386;16.940;2022-08-21T00:40:44;31.70;54.00
21891;DHT22;11110;52.386;16.940;2022-08-21T00:43:15;31.70;54.00
21891;DHT22;11110;52.386;16.940;2022-08-21T00:45:43;31.60;53.80
21891;DHT22;11110;52.386;16.940;2022-08-21T00:48:13;31.60;54.00
21891;DHT22;11110;52.386;16.940;2022-08-21T00:50:44;31.60;54.00
21891;DHT22;11110;52.386;16.940;2022-08-21T00:53:15;31.60;53.90
21891;DHT22;11110;52.386;16.940;2022-08-21T00:55:45;31.60;53.80
21891;DHT22;11110;52.386;16.940;2022-08-21T00:58:14;31.70;53.80
21891;DHT22;11110;52.386;16.940;2022-08-21T01:00:47;31.60;54.00
21891;DHT22;11110;52.386;16.940;2022-08-21T01:03:19;31.50;53.80
21891;DHT22;11110;52.386;16.940;2022-08-21T01:05:50;31.50;54.10
21891;DHT22;11110;52.386;16.940;2022-08-21T01:08:20;31.50;54.00
21891;DHT22;11110;52.386;16.940;2022-08-21T01:10:49;31.40;54.30
21891;DHT22;11110;52.386;16.940;2022-08-21T01:13:26;31.30;54.50
21891;DHT22;11110;52.386;16.940;2022-08-21T01:15:56;31.30;54.70
21891;DHT22;11110;52.386;16.940;2022-08-21T01:18:28;31.30;54.60
21891;DHT22;11110;52.386;16.940;2022-08-21T01:21:10;31.30;54.50
21891;DHT22;11110;52.386;16.940;2022-08-21T01:23:42;31.40;54.50
21891;DHT22;11110;52.386;16.940;2022-08-21T01:26:12;31.30;54.60
21891;DHT22;11110;52.386;16.940;2022-08-21T01:28:47;31.30;54.80
21891;DHT22;11110;52.386;16.940;2022-08-21T01:31:17;31.30;54.90
21891;DHT22;11110;52.386;16.940;2022-08-21T01:33:53;31.30;54.80
21891;DHT22;11110;52.386;16.940;2022-08-21T01:36:24;31.40;55.30
21891;DHT22;11110;52.386;16.940;2022-08-21T01:38:53;31.40;54.60
21891;DHT22;11110;52.386;16.940;2022-08-21T01:41:22;31.40;54.70
21891;DHT22;11110;52.386;16.940;2022-08-21T01:43:50;31.30;54.80
21891;DHT22;11110;52.386;16.940;2022-08-21T01:46:19;31.30;54.90
21891;DHT22;11110;52.386;16.940;2022-08-21T01:48:48;31.40;55.40
21891;DHT22;11110;52.386;16.940;2022-08-21T01:51:16;31.50;54.70
21891;DHT22;11110;52.386;16.940;2022-08-21T01:53:47;31.40;54.80
21891;DHT22;11110;52.386;16.940;2022-08-21T01:56:17;31.40;55.90
21891;DHT22;11110;52.386;16.940;2022-08-21T01:58:47;31.50;55.00
21891;DHT22;11110;52.386;16.940;2022-08-21T02:01:15;31.40;54.90
21891;DHT22;11110;52.386;16.940;2022-08-21T02:03:44;31.40;55.10
21891;DHT22;11110;52.386;16.940;2022-08-21T02:06:15;31.40;54.80
21891;DHT22;11110;52.386;16.940;2022-08-21T02:08:47;31.40;54.90
21891;DHT22;11110;52.386;16.940;2022-08-21T02:11:18;31.30;54.80
21891;DHT22;11110;52.386;16.940;2022-08-21T02:13:46;31.30;54.80
21891;DHT22;11110;52.386;16.940;2022-08-21T02:16:15;31.30;55.10
21891;DHT22;11110;52.386;16.940;2022-08-21T02:18:46;31.30;55.30
21891;DHT22;11110;52.386;16.940;2022-08-21T02:21:14;31.30;55.30
21891;DHT22;11110;52.386;16.940;2022-08-21T02:23:43;31.40;55.20
21891;DHT22;11110;52.386;16.940;2022-08-21T02:26:13;31.30;55.10
21891;DHT22;11110;52.386;16.940;2022-08-21T02:28:41;31.30;55.40
21891;DHT22;11110;52.386;16.940;2022-08-21T02:31:10;31.30;55.50
21891;DHT22;11110;52.386;16.940;2022-08-21T02:33:39;31.30;55.20
21891;DHT22;11110;52.386;16.940;2022-08-21T02:36:10;31.20;55.30
21891;DHT22;11110;52.386;16.940;2022-08-21T02:38:40;31.10;55.20
21891;DHT22;11110;52.386;16.940;2022-08-21T02:41:14;31.10;55.50
21891;DHT22;11110;52.386;16.940;2022-08-21T02:43:43;31.10;55.60
21891;DHT22;11110;52.386;16.940;2022-08-21T02:46:14;31.10;55.10
21891;DHT22;11110;52.386;16.940;2022-08-21T02:48:44;31.10;55.30
21891;DHT22;11110;52.386;16.940;2022-08-21T02:51:16;31.10;55.20
21891;DHT22;11110;52.386;16.940;2022-08-21T02:53:47;31.10;55.10
21891;DHT22;11110;52.386;16.940;2022-08-21T02:56:20;31.10;55.10
21891;DHT22;11110;52.386;16.940;2022-08-21T02:58:51;31.00;55.30
21891;DHT22;11110;52.386;16.940;2022-08-21T03:01:20;31.00;55.30
21891;DHT22;11110;52.386;16.940;2022-08-21T03:03:49;30.90;55.30
21891;DHT22;11110;52.386;16.940;2022-08-21T03:06:20;30.90;55.40
21891;DHT22;11110;52.386;16.940;2022-08-21T03:08:49;30.90;55.20
21891;DHT22;11110;52.386;16.940;2022-08-21T03:11:19;30.90;55.30
21891;DHT22;11110;52.386;16.940;2022-08-21T03:13:48;30.90;55.40
21891;DHT22;11110;52.386;16.940;2022-08-21T03:16:17;30.80;55.40
21891;DHT22;11110;52.386;16.940;2022-08-21T03:18:47;30.80;56.00
21891;DHT22;11110;52.386;16.940;2022-08-21T03:21:16;30.80;56.10
21891;DHT22;11110;52.386;16.940;2022-08-21T03:23:46;30.80;55.40
21891;DHT22;11110;52.386;16.940;2022-08-21T03:26:14;30.70;56.10
21891;DHT22;11110;52.386;16.940;2022-08-21T03:28:47;30.80;55.50
21891;DHT22;11110;52.386;16.940;2022-08-21T03:31:16;30.70;55.30
21891;DHT22;11110;52.386;16.940;2022-08-21T03:33:44;30.70;55.40
21891;DHT22;11110;52.386;16.940;2022-08-21T03:36:13;30.70;55.60
21891;DHT22;11110;52.386;16.940;2022-08-21T03:38:41;30.80;55.40
21891;DHT22;11110;52.386;16.940;2022-08-21T03:41:10;30.70;55.20
21891;DHT22;11110;52.386;16.940;2022-08-21T03:43:38;30.70;55.40
21891;DHT22;11110;52.386;16.940;2022-08-21T03:46:08;30.70;55.50
21891;DHT22;11110;52.386;16.940;2022-08-21T03:48:38;30.60;55.40
21891;DHT22;11110;52.386;16.940;2022-08-21T03:51:07;30.60;55.80
21891;DHT22;11110;52.386;16.940;2022-08-21T03:53:35;30.60;55.80
21891;DHT22;11110;52.386;16.940;2022-08-21T03:56:05;30.70;56.00
21891;DHT22;11110;52.386;16.940;2022-08-21T03:58:33;30.60;55.90
21891;DHT22;11110;52.386;16.940;2022-08-21T04:01:06;30.60;56.50
21891;DHT22;11110;52.386;16.940;2022-08-21T04:03:37;30.60;56.50
21891;DHT22;11110;52.386;16.940;2022-08-21T04:06:06;30.60;56.00
21891;DHT22;11110;52.386;16.940;2022-08-21T04:08:35;30.60;56.20
21891;DHT22;11110;52.386;16.940;2022-08-21T04:11:05;30.50;56.90
21891;DHT22;11110;52.386;16.940;2022-08-21T04:13:34;30.70;56.20
21891;DHT22;11110;52.386;16.940;2022-08-21T04:16:11;30.60;56.10
21891;DHT22;11110;52.386;16.940;2022-08-21T04:18:41;30.60;56.20
21891;DHT22;11110;52.386;16.940;2022-08-21T04:21:10;30.60;56.50
21891;DHT22;11110;52.386;16.940;2022-08-21T04:23:40;30.50;56.50
21891;DHT22;11110;52.386;16.940;2022-08-21T04:26:10;30.40;56.60
21891;DHT22;11110;52.386;16.940;2022-08-21T04:28:38;30.40;56.60
21891;DHT22;11110;52.386;16.940;2022-08-21T04:31:08;30.50;56.40
21891;DHT22;11110;52.386;16.940;2022-08-21T04:33:36;30.50;56.40
21891;DHT22;11110;52.386;16.940;2022-08-21T04:36:06;30.50;56.20
21891;DHT22;11110;52.386;16.940;2022-08-21T04:38:35;30.50;56.40
21891;DHT22;11110;52.386;16.940;2022-08-21T04:41:09;30.40;56.30
21891;DHT22;11110;52.386;16.940;2022-08-21T04:43:38;30.50;56.40
21891;DHT22;11110;52.386;16.940;2022-08-21T04:46:06;30.40;56.20
21891;DHT22;11110;52.386;16.940;2022-08-21T04:48:40;30.50;56.40
21891;DHT22;11110;52.386;16.940;2022-08-21T04:51:11;30.50;56.40
21891;DHT22;11110;52.386;16.940;2022-08-21T04:53:44;30.50;56.50
21891;DHT22;11110;52.386;16.940;2022-08-21T04:56:17;30.50;56.50
21891;DHT22;11110;52.386;16.940;2022-08-21T04:58:49;30.50;56.40
21891;DHT22;11110;52.386;16.940;2022-08-21T05:01:21;30.60;56.60
21891;DHT22;11110;52.386;16.940;2022-08-21T05:03:54;30.70;56.40
21891;DHT22;11110;52.386;16.940;2022-08-21T05:06:25;30.70;56.50
21891;DHT22;11110;52.386;16.940;2022-08-21T05:08:55;30.80;56.40
21891;DHT22;11110;52.386;16.940;2022-08-21T05:11:29;30.70;56.50
21891;DHT22;11110;52.386;16.940;2022-08-21T05:13:57;30.70;56.30
21891;DHT22;11110;52.386;16.940;2022-08-21T05:16:26;30.70;56.50
21891;DHT22;11110;52.386;16.940;2022-08-21T05:19:04;30.70;56.50
21891;DHT22;11110;52.386;16.940;2022-08-21T05:21:35;30.80;56.30
21891;DHT22;11110;52.386;16.940;2022-08-21T05:24:04;30.80;56.40
21891;DHT22;11110;52.386;16.940;2022-08-21T05:26:33;30.90;56.50
21891;DHT22;11110;52.386;16.940;2022-08-21T05:29:14;30.90;56.30
21891;DHT22;11110;52.386;16.940;2022-08-21T05:31:44;30.90;56.20
21891;DHT22;11110;52.386;16.940;2022-08-21T05:34:14;30.90;56.30
21891;DHT22;11110;52.386;16.940;2022-08-21T05:36:44;31.00;56.40
21891;DHT22;11110;52.386;16.940;2022-08-21T05:39:13;31.00;56.60
21891;DHT22;11110;52.386;16.940;2022-08-21T05:41:42;31.10;56.30
21891;DHT22;11110;52.386;16.940;2022-08-21T05:44:10;31.10;56.00
21891;DHT22;11110;52.386;16.940;2022-08-21T05:46:38;31.20;55.80
21891;DHT22;11110;52.386;16.940;2022-08-21T05:49:07;31.20;56.00
21891;DHT22;11110;52.386;16.940;2022-08-21T05:51:35;31.20;55.80
21891;DHT22;11110;52.386;16.940;2022-08-21T05:54:05;31.20;55.70
21891;DHT22;11110;52.386;16.940;2022-08-21T05:56:34;31.20;55.50
21891;DHT22;11110;52.386;16.940;2022-08-21T05:59:02;31.20;55.70
21891;DHT22;11110;52.386;16.940;2022-08-21T06:01:35;31.20;55.70
21891;DHT22;11110;52.386;16.940;2022-08-21T06:04:04;31.10;55.80
21891;DHT22;11110;52.386;16.940;2022-08-21T06:06:34;31.00;56.00
21891;DHT22;11110;52.386;16.940;2022-08-21T06:09:05;31.10;56.00
21891;DHT22;11110;52.386;16.940;2022-08-21T06:11:33;31.10;56.10
21891;DHT22;11110;52.386;16.940;2022-08-21T06:14:02;31.00;56.10
21891;DHT22;11110;52.386;16.940;2022-08-21T06:16:33;31.10;56.00
21891;DHT22;11110;52.386;16.940;2022-08-21T06:19:01;31.00;56.30
21891;DHT22;11110;52.386;16.940;2022-08-21T06:21:30;31.00;56.00
21891;DHT22;11110;52.386;16.940;2022-08-21T06:23:58;31.00;56.10
21891;DHT22;11110;52.386;16.940;2022-08-21T06:26:28;31.00;56.10
21891;DHT22;11110;52.386;16.940;2022-08-21T06:28:57;31.00;56.30
21891;DHT22;11110;52.386;16.940;2022-08-21T06:31:27;31.00;56.50
21891;DHT22;11110;52.386;16.940;2022-08-21T06:33:56;31.00;56.50
21891;DHT22;11110;52.386;16.940;2022-08-21T06:36:24;31.00;56.50
21891;DHT22;11110;52.386;16.940;2022-08-21T06:38:53;31.10;56.30
21891;DHT22;11110;52.386;16.940;2022-08-21T06:41:24;31.00;56.00
21891;DHT22;11110;52.386;16.940;2022-08-21T06:43:55;31.00;56.20
21891;DHT22;11110;52.386;16.940;2022-08-21T06:46:26;31.00;56.00
21891;DHT22;11110;52.386;16.940;2022-08-21T06:48:56;31.00;55.90
21891;DHT22;11110;52.386;16.940;2022-08-21T06:51:26;30.90;55.50
21891;DHT22;11110;52.386;16.940;2022-08-21T06:53:55;30.90;55.20
21891;DHT22;11110;52.386;16.940;2022-08-21T06:56:25;30.80;55.00
21891;DHT22;11110;52.386;16.940;2022-08-21T06:58:55;30.70;55.00
21891;DHT22;11110;52.386;16.940;2022-08-21T07:01:25;30.70;55.10
21891;DHT22;11110;52.386;16.940;2022-08-21T07:03:54;30.70;55.10
21891;DHT22;11110;52.386;16.940;2022-08-21T07:06:23;30.60;55.20
21891;DHT22;11110;52.386;16.940;2022-08-21T07:08:51;30.60;55.10
21891;DHT22;11110;52.386;16.940;2022-08-21T07:11:25;30.60;55.20
21891;DHT22;11110;52.386;16.940;2022-08-21T07:13:55;30.50;55.40
21891;DHT22;11110;52.386;16.940;2022-08-21T07:16:24;30.50;55.30
21891;DHT22;11110;52.386;16.940;2022-08-21T07:18:53;30.50;55.10
21891;DHT22;11110;52.386;16.940;2022-08-21T07:21:22;30.50;54.90
21891;DHT22;11110;52.386;16.940;2022-08-21T07:23:52;30.40;55.20
21891;DHT22;11110;52.386;16.940;2022-08-21T07:26:23;30.40;55.40
21891;DHT22;11110;52.386;16.940;2022-08-21T07:28:52;30.30;55.50
21891;DHT22;11110;52.386;16.940;2022-08-21T07:31:24;30.40;55.20
21891;DHT22;11110;52.386;16.940;2022-08-21T07:33:54;30.40;55.20
21891;DHT22;11110;52.386;16.940;2022-08-21T07:36:22;30.30;55.30
21891;DHT22;11110;52.386;16.940;2022-08-21T07:38:51;30.30;55.20
21891;DHT22;11110;52.386;16.940;2022-08-21T07:41:22;30.30;55.40
21891;DHT22;11110;52.386;16.940;2022-08-21T07:43:51;30.30;55.60
21891;DHT22;11110;52.386;16.940;2022-08-21T07:46:21;30.40;55.50
21891;DHT22;11110;52.386;16.940;2022-08-21T07:48:50;30.40;55.60
21891;DHT22;11110;52.386;16.940;2022-08-21T07:51:25;30.40;55.50
21891;DHT22;11110;52.386;16.940;2022-08-21T07:53:56;30.40;55.40
21891;DHT22;11110;52.386;16.940;2022-08-21T07:56:26;30.40;55.70
21891;DHT22;11110;52.386;16.940;2022-08-21T07:58:54;30.40;55.40
21891;DHT22;11110;52.386;16.940;2022-08-21T08:01:26;30.40;56.20
21891;DHT22;11110;52.386;16.940;2022-08-21T08:03:55;30.50;55.30
21891;DHT22;11110;52.386;16.940;2022-08-21T08:06:23;30.50;55.30
21891;DHT22;11110;52.386;16.940;2022-08-21T08:08:53;30.50;55.10
21891;DHT22;11110;52.386;16.940;2022-08-21T08:11:22;30.50;55.20
21891;DHT22;11110;52.386;16.940;2022-08-21T08:13:51;30.50;55.20
21891;DHT22;11110;52.386;16.940;2022-08-21T08:16:20;30.60;55.10
21891;DHT22;11110;52.386;16.940;2022-08-21T08:18:50;30.60;55.20
21891;DHT22;11110;52.386;16.940;2022-08-21T08:21:19;30.60;55.30
21891;DHT22;11110;52.386;16.940;2022-08-21T08:23:48;30.60;55.20
21891;DHT22;11110;52.386;16.940;2022-08-21T08:26:17;30.70;55.00
21891;DHT22;11110;52.386;16.940;2022-08-21T08:28:45;30.70;54.60
21891;DHT22;11110;52.386;16.940;2022-08-21T08:31:15;30.70;54.60
21891;DHT22;11110;52.386;16.940;2022-08-21T08:33:43;30.70;54.60
21891;DHT22;11110;52.386;16.940;2022-08-21T08:36:17;30.60;54.80
21891;DHT22;11110;52.386;16.940;2022-08-21T08:38:47;30.70;54.80
21891;DHT22;11110;52.386;16.940;2022-08-21T08:41:18;30.60;55.10
21891;DHT22;11110;52.386;16.940;2022-08-21T08:43:50;30.60;54.80
21891;DHT22;11110;52.386;16.940;2022-08-21T08:46:33;30.60;55.00
21891;DHT22;11110;52.386;16.940;2022-08-21T08:49:08;30.60;55.00
21891;DHT22;11110;52.386;16.940;2022-08-21T08:51:46;30.60;54.90
21891;DHT22;11110;52.386;16.940;2022-08-21T08:54:26;30.60;55.20
21891;DHT22;11110;52.386;16.940;2022-08-21T08:56:59;30.60;55.30
21891;DHT22;11110;52.386;16.940;2022-08-21T08:59:37;30.60;55.30
21891;DHT22;11110;52.386;16.940;2022-08-21T09:02:09;30.60;55.20
21891;DHT22;11110;52.386;16.940;2022-08-21T09:04:39;30.60;55.60
21891;DHT22;11110;52.386;16.940;2022-08-21T09:07:15;30.60;55.30
21891;DHT22;11110;52.386;16.940;2022-08-21T09:09:55;30.70;55.20
21891;DHT22;11110;52.386;16.940;2022-08-21T09:12:37;30.70;55.20
21891;DHT22;11110;52.386;16.940;2022-08-21T09:15:12;30.70;55.20
21891;DHT22;11110;52.386;16.940;2022-08-21T09:17:55;30.60;55.40
21891;DHT22;11110;52.386;16.940;2022-08-21T09:20:41;30.60;55.50
21891;DHT22;11110;52.386;16.940;2022-08-21T09:23:21;30.60;55.70
21891;DHT22;11110;52.386;16.940;2022-08-21T09:25:59;30.60;55.60
21891;DHT22;11110;52.386;16.940;2022-08-21T09:28:32;30.60;55.80
21891;DHT22;11110;52.386;16.940;2022-08-21T09:31:05;30.60;55.70
21891;DHT22;11110;52.386;16.940;2022-08-21T09:33:34;30.60;55.70
21891;DHT22;11110;52.386;16.940;2022-08-21T09:36:03;30.70;55.60
21891;DHT22;11110;52.386;16.940;2022-08-21T09:38:35;30.70;55.70
21891;DHT22;11110;52.386;16.940;2022-08-21T09:41:07;30.80;55.40
21891;DHT22;11110;52.386;16.940;2022-08-21T09:43:37;30.80;55.30
21891;DHT22;11110;52.386;16.940;2022-08-21T09:46:09;30.70;55.50
21891;DHT22;11110;52.386;16.940;2022-08-21T09:48:41;30.70;55.60
21891;DHT22;11110;52.386;16.940;2022-08-21T09:51:13;30.60;56.10
21891;DHT22;11110;52.386;16.940;2022-08-21T09:53:46;30.60;55.60
21891;DHT22;11110;52.386;16.940;2022-08-21T09:56:22;30.60;55.80
21891;DHT22;11110;52.386;16.940;2022-08-21T09:59:18;30.70;56.00
21891;DHT22;11110;52.386;16.940;2022-08-21T10:01:49;30.70;56.00
21891;DHT22;11110;52.386;16.940;2022-08-21T10:04:21;30.70;55.80
21891;DHT22;11110;52.386;16.940;2022-08-21T10:06:50;30.70;55.90
21891;DHT22;11110;52.386;16.940;2022-08-21T10:09:25;30.70;56.00
21891;DHT22;11110;52.386;16.940;2022-08-21T10:12:00;30.80;56.10
21891;DHT22;11110;52.386;16.940;2022-08-21T10:14:47;30.90;56.00
21891;DHT22;11110;52.386;16.940;2022-08-21T10:17:24;30.90;55.90
21891;DHT22;11110;52.386;16.940;2022-08-21T10:20:01;30.90;55.90
21891;DHT22;11110;52.386;16.940;2022-08-21T10:22:38;30.90;55.80
21891;DHT22;11110;52.386;16.940;2022-08-21T10:25:16;31.00;56.00
21891;DHT22;11110;52.386;16.940;2022-08-21T10:27:56;31.00;55.80
21891;DHT22;11110;52.386;16.940;2022-08-21T10:30:34;31.00;55.70
21891;DHT22;11110;52.386;16.940;2022-08-21T10:33:14;31.00;55.80
21891;DHT22;11110;52.386;16.940;2022-08-21T10:35:50;31.10;56.50
21891;DHT22;11110;52.386;16.940;2022-08-21T10:38:41;31.10;55.70
21891;DHT22;11110;52.386;16.940;2022-08-21T10:41:37;31.10;55.60
21891;DHT22;11110;52.386;16.940;2022-08-21T10:44:17;31.10;55.80
21891;DHT22;11110;52.386;16.940;2022-08-21T10:46:54;31.10;55.70
21891;DHT22;11110;52.386;16.940;2022-08-21T10:49:34;31.10;55.90
21891;DHT22;11110;52.386;16.940;2022-08-21T10:52:24;31.10;56.50
21891;DHT22;11110;52.386;16.940;2022-08-21T10:54:59;31.10;56.00
21891;DHT22;11110;52.386;16.940;2022-08-21T10:57:38;31.10;56.00
21891;DHT22;11110;52.386;16.940;2022-08-21T11:00:11;31.10;55.80
21891;DHT22;11110;52.386;16.940;2022-08-21T11:02:42;31.10;55.90
21891;DHT22;11110;52.386;16.940;2022-08-21T11:05:17;31.10;56.20
21891;DHT22;11110;52.386;16.940;2022-08-21T11:07:48;31.20;56.00
21891;DHT22;11110;52.386;16.940;2022-08-21T11:10:23;31.20;56.00
21891;DHT22;11110;52.386;16.940;2022-08-21T11:12:56;31.20;56.10
21891;DHT22;11110;52.386;16.940;2022-08-21T11:15:32;31.20;56.00
21891;DHT22;11110;52.386;16.940;2022-08-21T11:18:14;31.20;56.20
21891;DHT22;11110;52.386;16.940;2022-08-21T11:20:48;31.20;56.20
21891;DHT22;11110;52.386;16.940;2022-08-21T11:23:23;31.20;56.20
21891;DHT22;11110;52.386;16.940;2022-08-21T11:26:02;31.20;56.10
21891;DHT22;11110;52.386;16.940;2022-08-21T11:28:38;31.30;56.30
21891;DHT22;11110;52.386;16.940;2022-08-21T11:31:21;31.30;56.00
21891;DHT22;11110;52.386;16.940;2022-08-21T11:34:02;31.30;55.70
21891;DHT22;11110;52.386;16.940;2022-08-21T11:36:38;31.30;56.00
21891;DHT22;11110;52.386;16.940;2022-08-21T11:39:21;31.30;56.00
21891;DHT22;11110;52.386;16.940;2022-08-21T11:42:01;31.30;56.20
21891;DHT22;11110;52.386;16.940;2022-08-21T11:44:46;31.40;55.90
21891;DHT22;11110;52.386;16.940;2022-08-21T11:47:25;31.30;56.20
21891;DHT22;11110;52.386;16.940;2022-08-21T11:50:06;31.30;56.10
21891;DHT22;11110;52.386;16.940;2022-08-21T11:53:01;31.20;56.30
21891;DHT22;11110;52.386;16.940;2022-08-21T11:55:35;31.30;56.20
21891;DHT22;11110;52.386;16.940;2022-08-21T11:58:07;31.30;56.10
21891;DHT22;11110;52.386;16.940;2022-08-21T12:00:44;31.30;55.70
21891;DHT22;11110;52.386;16.940;2022-08-21T12:03:16;31.30;55.80
21891;DHT22;11110;52.386;16.940;2022-08-21T12:05:55;31.30;56.00
21891;DHT22;11110;52.386;16.940;2022-08-21T12:08:30;31.40;56.40
21891;DHT22;11110;52.386;16.940;2022-08-21T12:11:04;31.20;55.90
21891;DHT22;11110;52.386;16.940;2022-08-21T12:13:36;31.20;56.00
21891;DHT22;11110;52.386;16.940;2022-08-21T12:16:11;31.20;56.10
21891;DHT22;11110;52.386;16.940;2022-08-21T12:18:40;31.30;55.80
21891;DHT22;11110;52.386;16.940;2022-08-21T12:21:24;31.30;56.60
21891;DHT22;11110;52.386;16.940;2022-08-21T12:24:02;31.30;55.70
21891;DHT22;11110;52.386;16.940;2022-08-21T12:26:33;31.30;55.50
21891;DHT22;11110;52.386;16.940;2022-08-21T12:29:11;31.20;55.70
21891;DHT22;11110;52.386;16.940;2022-08-21T12:31:55;31.40;55.90
21891;DHT22;11110;52.386;16.940;2022-08-21T12:34:32;31.40;55.20
21891;DHT22;11110;52.386;16.940;2022-08-21T12:37:04;31.40;55.30
21891;DHT22;11110;52.386;16.940;2022-08-21T12:39:38;31.30;55.70
21891;DHT22;11110;52.386;16.940;2022-08-21T12:42:16;31.30;55.60
21891;DHT22;11110;52.386;16.940;2022-08-21T12:44:49;31.40;55.70
21891;DHT22;11110;52.386;16.940;2022-08-21T12:47:27;31.30;54.90
21891;DHT22;11110;52.386;16.940;2022-08-21T12:50:03;31.30;54.70
21891;DHT22;11110;52.386;16.940;2022-08-21T12:52:35;31.30;54.80
21891;DHT22;11110;52.386;16.940;2022-08-21T12:55:07;31.20;54.60
21891;DHT22;11110;52.386;16.940;2022-08-21T12:57:36;31.30;54.60
21891;DHT22;11110;52.386;16.940;2022-08-21T13:00:07;31.40;54.50
21891;DHT22;11110;52.386;16.940;2022-08-21T13:02:49;31.40;54.40
21891;DHT22;11110;52.386;16.940;2022-08-21T13:05:26;31.50;54.40
21891;DHT22;11110;52.386;16.940;2022-08-21T13:07:56;31.40;53.60
21891;DHT22;11110;52.386;16.940;2022-08-21T13:10:27;31.40;53.90
21891;DHT22;11110;52.386;16.940;2022-08-21T13:12:58;31.40;54.00
21891;DHT22;11110;52.386;16.940;2022-08-21T13:15:40;31.30;54.10
21891;DHT22;11110;52.386;16.940;2022-08-21T13:18:24;31.30;54.30
21891;DHT22;11110;52.386;16.940;2022-08-21T13:21:03;31.40;54.10
21891;DHT22;11110;52.386;16.940;2022-08-21T13:23:32;31.40;54.20
21891;DHT22;11110;52.386;16.940;2022-08-21T13:26:01;31.40;54.60
21891;DHT22;11110;52.386;16.940;2022-08-21T13:28:45;31.40;54.10
21891;DHT22;11110;52.386;16.940;2022-08-21T13:31:18;31.30;54.40
21891;DHT22;11110;52.386;16.940;2022-08-21T13:33:49;31.30;54.60
21891;DHT22;11110;52.386;16.940;2022-08-21T13:36:21;31.40;54.60
21891;DHT22;11110;52.386;16.940;2022-08-21T13:38:53;31.40;54.30
21891;DHT22;11110;52.386;16.940;2022-08-21T13:41:25;31.40;54.70
21891;DHT22;11110;52.386;16.940;2022-08-21T13:43:58;31.40;54.60
21891;DHT22;11110;52.386;16.940;2022-08-21T13:46:29;31.50;53.80
21891;DHT22;11110;52.386;16.940;2022-08-21T13:49:02;31.40;53.20
21891;DHT22;11110;52.386;16.940;2022-08-21T13:51:31;31.50;52.20
21891;DHT22;11110;52.386;16.940;2022-08-21T13:54:01;31.40;51.60
21891;DHT22;11110;52.386;16.940;2022-08-21T13:56:33;31.30;51.60
21891;DHT22;11110;52.386;16.940;2022-08-21T13:59:02;31.20;52.20
21891;DHT22;11110;52.386;16.940;2022-08-21T14:01:33;31.00;52.20
21891;DHT22;11110;52.386;16.940;2022-08-21T14:04:11;31.10;52.30
21891;DHT22;11110;52.386;16.940;2022-08-21T14:06:44;31.10;52.20
21891;DHT22;11110;52.386;16.940;2022-08-21T14:09:23;31.00;52.70
21891;DHT22;11110;52.386;16.940;2022-08-21T14:11:54;31.00;52.90
21891;DHT22;11110;52.386;16.940;2022-08-21T14:14:27;31.00;53.00
21891;DHT22;11110;52.386;16.940;2022-08-21T14:16:58;31.10;53.00
21891;DHT22;11110;52.386;16.940;2022-08-21T14:19:44;30.90;52.90
21891;DHT22;11110;52.386;16.940;2022-08-21T14:22:27;31.00;53.10
21891;DHT22;11110;52.386;16.940;2022-08-21T14:25:01;31.00;53.20
21891;DHT22;11110;52.386;16.940;2022-08-21T14:27:30;30.90;53.00
21891;DHT22;11110;52.386;16.940;2022-08-21T14:30:03;30.80;53.10
21891;DHT22;11110;52.386;16.940;2022-08-21T14:32:38;30.70;53.60
21891;DHT22;11110;52.386;16.940;2022-08-21T14:35:13;30.70;53.90
21891;DHT22;11110;52.386;16.940;2022-08-21T14:37:49;30.80;54.00
21891;DHT22;11110;52.386;16.940;2022-08-21T14:40:20;30.80;54.00
21891;DHT22;11110;52.386;16.940;2022-08-21T14:42:50;30.80;53.90
21891;DHT22;11110;52.386;16.940;2022-08-21T14:45:25;30.80;53.90
21891;DHT22;11110;52.386;16.940;2022-08-21T14:47:54;30.80;52.80
21891;DHT22;11110;52.386;16.940;2022-08-21T14:50:25;30.80;53.90
21891;DHT22;11110;52.386;16.940;2022-08-21T14:52:54;30.80;52.10
21891;DHT22;11110;52.386;16.940;2022-08-21T14:55:23;30.70;52.10
21891;DHT22;11110;52.386;16.940;2022-08-21T14:57:53;30.60;52.40
21891;DHT22;11110;52.386;16.940;2022-08-21T15:00:24;30.60;52.60
21891;DHT22;11110;52.386;16.940;2022-08-21T15:03:02;30.60;52.60
21891;DHT22;11110;52.386;16.940;2022-08-21T15:05:32;30.60;52.70
21891;DHT22;11110;52.386;16.940;2022-08-21T15:08:01;30.70;52.40
21891;DHT22;11110;52.386;16.940;2022-08-21T15:10:33;30.70;52.30
21891;DHT22;11110;52.386;16.940;2022-08-21T15:13:14;30.60;52.30
21891;DHT22;11110;52.386;16.940;2022-08-21T15:15:44;30.50;52.30
21891;DHT22;11110;52.386;16.940;2022-08-21T15:18:14;30.50;53.40
21891;DHT22;11110;52.386;16.940;2022-08-21T15:20:43;30.50;53.00
21891;DHT22;11110;52.386;16.940;2022-08-21T15:23:12;30.60;52.70
21891;DHT22;11110;52.386;16.940;2022-08-21T15:25:43;30.60;52.40
21891;DHT22;11110;52.386;16.940;2022-08-21T15:28:12;30.60;52.30
21891;DHT22;11110;52.386;16.940;2022-08-21T15:30:41;30.60;52.50
21891;DHT22;11110;52.386;16.940;2022-08-21T15:33:10;30.60;52.20
21891;DHT22;11110;52.386;16.940;2022-08-21T15:35:38;30.60;52.00
21891;DHT22;11110;52.386;16.940;2022-08-21T15:38:09;30.60;51.90
21891;DHT22;11110;52.386;16.940;2022-08-21T15:40:38;30.50;51.90
21891;DHT22;11110;52.386;16.940;2022-08-21T15:43:23;30.40;51.90
21891;DHT22;11110;52.386;16.940;2022-08-21T15:45:58;30.40;51.50